< < Back
Terminal Aerodrome Forecast


Current Version              Previous Versions:   1  2  3  4  5  6  7  8  9  

Terminal Aerodrome Forecast

838
FTUS42 KTAE 171700
TAFABY
TAF
KABY 171720Z 1718/1818 05011G18KT P6SM BKN028
     FM180300 08011KT P6SM BKN025
     FM180900 06013KT 5SM RA OVC008
     FM181400 06013G20KT 2SM +RA OVC007=

Latest METAR

736
SAUS70 KWBC 180500 RRB
MTRABY
METAR KABY 180453Z 08011KT 10SM OVC043 17/08 A3025 RMK AO2 RAB42E52
SLP243 P0000 T01670078 402060089


USA.gov is the U.S. government's official web portal to all federal, state and local government web resources and services.